sensor_id;sensor_type;location;lat;lon;timestamp;P1;durP1;ratioP1;P2;durP2;ratioP2
8060;SDS011;4073;42.626;25.386;2023-06-24T00:01:14;15.37;;;11.90;;
8060;SDS011;4073;42.626;25.386;2023-06-24T00:03:40;13.33;;;11.90;;
8060;SDS011;4073;42.626;25.386;2023-06-24T00:06:06;12.77;;;11.67;;
8060;SDS011;4073;42.626;25.386;2023-06-24T00:08:32;13.53;;;11.13;;
8060;SDS011;4073;42.626;25.386;2023-06-24T00:10:59;11.23;;;10.23;;
8060;SDS011;4073;42.626;25.386;2023-06-24T00:13:26;12.60;;;10.90;;
8060;SDS011;4073;42.626;25.386;2023-06-24T00:15:51;12.50;;;11.20;;
8060;SDS011;4073;42.626;25.386;2023-06-24T00:18:17;12.37;;;11.00;;
8060;SDS011;4073;42.626;25.386;2023-06-24T00:20:42;11.30;;;10.20;;
8060;SDS011;4073;42.626;25.386;2023-06-24T00:23:08;12.50;;;11.10;;
8060;SDS011;4073;42.626;25.386;2023-06-24T00:25:34;11.43;;;9.93;;
8060;SDS011;4073;42.626;25.386;2023-06-24T00:28:01;11.60;;;10.50;;
8060;SDS011;4073;42.626;25.386;2023-06-24T00:30:26;10.90;;;9.93;;
8060;SDS011;4073;42.626;25.386;2023-06-24T00:32:52;11.83;;;10.73;;
8060;SDS011;4073;42.626;25.386;2023-06-24T00:35:17;11.03;;;9.93;;
8060;SDS011;4073;42.626;25.386;2023-06-24T00:37:43;11.53;;;10.53;;
8060;SDS011;4073;42.626;25.386;2023-06-24T00:40:10;12.03;;;10.73;;
8060;SDS011;4073;42.626;25.386;2023-06-24T00:42:36;11.70;;;9.57;;
8060;SDS011;4073;42.626;25.386;2023-06-24T00:45:03;11.70;;;10.60;;
8060;SDS011;4073;42.626;25.386;2023-06-24T00:47:30;10.13;;;8.97;;
8060;SDS011;4073;42.626;25.386;2023-06-24T00:49:56;14.33;;;10.10;;
8060;SDS011;4073;42.626;25.386;2023-06-24T00:52:22;12.20;;;10.23;;
8060;SDS011;4073;42.626;25.386;2023-06-24T00:54:48;12.20;;;9.53;;
8060;SDS011;4073;42.626;25.386;2023-06-24T00:57:14;15.47;;;10.27;;
8060;SDS011;4073;42.626;25.386;2023-06-24T00:59:42;10.37;;;9.47;;
8060;SDS011;4073;42.626;25.386;2023-06-24T01:02:10;11.37;;;10.17;;
8060;SDS011;4073;42.626;25.386;2023-06-24T01:04:37;10.73;;;9.50;;
8060;SDS011;4073;42.626;25.386;2023-06-24T01:07:02;10.97;;;9.87;;
8060;SDS011;4073;42.626;25.386;2023-06-24T01:09:30;10.67;;;9.47;;
8060;SDS011;4073;42.626;25.386;2023-06-24T01:11:56;10.27;;;8.97;;
8060;SDS011;4073;42.626;25.386;2023-06-24T01:14:21;11.10;;;9.93;;
8060;SDS011;4073;42.626;25.386;2023-06-24T01:31:14;10.87;;;9.80;;
8060;SDS011;4073;42.626;25.386;2023-06-24T01:34:15;11.33;;;10.17;;
8060;SDS011;4073;42.626;25.386;2023-06-24T01:36:52;11.83;;;10.47;;
8060;SDS011;4073;42.626;25.386;2023-06-24T01:39:28;12.07;;;10.87;;
8060;SDS011;4073;42.626;25.386;2023-06-24T01:41:59;12.97;;;10.80;;
8060;SDS011;4073;42.626;25.386;2023-06-24T01:44:30;12.63;;;10.23;;
8060;SDS011;4073;42.626;25.386;2023-06-24T01:46:57;11.43;;;9.87;;
8060;SDS011;4073;42.626;25.386;2023-06-24T01:49:24;12.50;;;9.20;;
8060;SDS011;4073;42.626;25.386;2023-06-24T01:51:55;11.63;;;10.10;;
8060;SDS011;4073;42.626;25.386;2023-06-24T01:54:24;10.00;;;9.00;;
8060;SDS011;4073;42.626;25.386;2023-06-24T01:56:54;11.90;;;10.80;;
8060;SDS011;4073;42.626;25.386;2023-06-24T01:59:22;11.50;;;10.30;;
8060;SDS011;4073;42.626;25.386;2023-06-24T02:01:50;11.00;;;9.97;;
8060;SDS011;4073;42.626;25.386;2023-06-24T02:04:16;11.43;;;9.97;;
8060;SDS011;4073;42.626;25.386;2023-06-24T02:06:44;10.43;;;9.43;;
8060;SDS011;4073;42.626;25.386;2023-06-24T02:09:10;11.30;;;9.83;;
8060;SDS011;4073;42.626;25.386;2023-06-24T02:11:36;13.17;;;8.80;;
8060;SDS011;4073;42.626;25.386;2023-06-24T02:14:03;11.20;;;8.67;;
8060;SDS011;4073;42.626;25.386;2023-06-24T02:16:31;10.73;;;9.50;;
8060;SDS011;4073;42.626;25.386;2023-06-24T02:18:59;10.70;;;9.70;;
8060;SDS011;4073;42.626;25.386;2023-06-24T02:21:27;11.00;;;9.90;;
8060;SDS011;4073;42.626;25.386;2023-06-24T02:23:53;11.97;;;10.30;;
8060;SDS011;4073;42.626;25.386;2023-06-24T02:26:20;10.80;;;9.13;;
8060;SDS011;4073;42.626;25.386;2023-06-24T02:28:47;11.03;;;9.90;;
8060;SDS011;4073;42.626;25.386;2023-06-24T02:31:14;11.67;;;9.57;;
8060;SDS011;4073;42.626;25.386;2023-06-24T02:33:41;14.50;;;9.77;;
8060;SDS011;4073;42.626;25.386;2023-06-24T02:36:07;10.47;;;8.50;;
8060;SDS011;4073;42.626;25.386;2023-06-24T02:38:32;11.80;;;8.57;;
8060;SDS011;4073;42.626;25.386;2023-06-24T02:40:58;10.47;;;8.87;;
8060;SDS011;4073;42.626;25.386;2023-06-24T02:43:25;10.30;;;9.13;;
8060;SDS011;4073;42.626;25.386;2023-06-24T02:45:51;15.00;;;9.70;;
8060;SDS011;4073;42.626;25.386;2023-06-24T02:48:17;11.23;;;9.97;;
8060;SDS011;4073;42.626;25.386;2023-06-24T02:50:45;11.73;;;9.87;;
8060;SDS011;4073;42.626;25.386;2023-06-24T02:53:12;11.40;;;10.00;;
8060;SDS011;4073;42.626;25.386;2023-06-24T02:55:38;11.57;;;10.37;;
8060;SDS011;4073;42.626;25.386;2023-06-24T02:58:05;13.50;;;10.67;;
8060;SDS011;4073;42.626;25.386;2023-06-24T03:00:33;12.33;;;10.47;;
8060;SDS011;4073;42.626;25.386;2023-06-24T03:03:02;13.03;;;11.73;;
8060;SDS011;4073;42.626;25.386;2023-06-24T03:05:30;14.50;;;12.17;;
8060;SDS011;4073;42.626;25.386;2023-06-24T03:07:58;12.67;;;11.07;;
8060;SDS011;4073;42.626;25.386;2023-06-24T03:10:24;12.90;;;11.40;;
8060;SDS011;4073;42.626;25.386;2023-06-24T03:12:50;15.07;;;12.40;;
8060;SDS011;4073;42.626;25.386;2023-06-24T03:15:16;13.83;;;12.40;;
8060;SDS011;4073;42.626;25.386;2023-06-24T03:17:42;13.83;;;11.77;;
8060;SDS011;4073;42.626;25.386;2023-06-24T03:20:07;14.50;;;12.20;;
8060;SDS011;4073;42.626;25.386;2023-06-24T03:22:33;17.40;;;13.97;;
8060;SDS011;4073;42.626;25.386;2023-06-24T03:24:59;13.50;;;12.10;;
8060;SDS011;4073;42.626;25.386;2023-06-24T03:27:24;16.07;;;12.70;;
8060;SDS011;4073;42.626;25.386;2023-06-24T03:29:50;14.00;;;12.67;;
8060;SDS011;4073;42.626;25.386;2023-06-24T03:32:15;14.67;;;13.20;;
8060;SDS011;4073;42.626;25.386;2023-06-24T03:34:41;18.40;;;13.40;;
8060;SDS011;4073;42.626;25.386;2023-06-24T03:37:06;19.40;;;13.43;;
8060;SDS011;4073;42.626;25.386;2023-06-24T03:39:32;14.40;;;12.97;;
8060;SDS011;4073;42.626;25.386;2023-06-24T03:41:57;15.17;;;12.67;;
8060;SDS011;4073;42.626;25.386;2023-06-24T03:44:23;18.90;;;12.93;;
8060;SDS011;4073;42.626;25.386;2023-06-24T03:46:48;14.43;;;12.93;;
8060;SDS011;4073;42.626;25.386;2023-06-24T03:49:14;12.70;;;11.53;;
8060;SDS011;4073;42.626;25.386;2023-06-24T03:51:39;12.67;;;11.47;;
8060;SDS011;4073;42.626;25.386;2023-06-24T03:54:05;12.03;;;10.90;;
8060;SDS011;4073;42.626;25.386;2023-06-24T03:56:30;14.03;;;12.53;;
8060;SDS011;4073;42.626;25.386;2023-06-24T03:58:56;17.70;;;12.27;;
8060;SDS011;4073;42.626;25.386;2023-06-24T04:01:22;13.03;;;11.73;;
8060;SDS011;4073;42.626;25.386;2023-06-24T04:03:47;13.87;;;12.57;;
8060;SDS011;4073;42.626;25.386;2023-06-24T04:06:13;16.67;;;12.67;;
8060;SDS011;4073;42.626;25.386;2023-06-24T04:08:38;14.63;;;12.03;;
8060;SDS011;4073;42.626;25.386;2023-06-24T04:11:08;13.23;;;11.87;;
8060;SDS011;4073;42.626;25.386;2023-06-24T04:13:33;14.80;;;13.30;;
8060;SDS011;4073;42.626;25.386;2023-06-24T04:15:59;18.13;;;13.37;;
8060;SDS011;4073;42.626;25.386;2023-06-24T04:18:24;14.17;;;12.77;;
8060;SDS011;4073;42.626;25.386;2023-06-24T04:20:50;15.60;;;13.97;;
8060;SDS011;4073;42.626;25.386;2023-06-24T04:23:15;18.00;;;15.37;;
8060;SDS011;4073;42.626;25.386;2023-06-24T04:25:41;14.87;;;13.47;;
8060;SDS011;4073;42.626;25.386;2023-06-24T04:28:07;15.47;;;14.07;;
8060;SDS011;4073;42.626;25.386;2023-06-24T04:30:33;19.00;;;13.67;;
8060;SDS011;4073;42.626;25.386;2023-06-24T04:33:03;14.63;;;13.13;;
8060;SDS011;4073;42.626;25.386;2023-06-24T04:35:30;14.70;;;13.13;;
8060;SDS011;4073;42.626;25.386;2023-06-24T04:37:56;15.00;;;12.87;;
8060;SDS011;4073;42.626;25.386;2023-06-24T04:40:21;15.77;;;14.23;;
8060;SDS011;4073;42.626;25.386;2023-06-24T04:42:47;13.60;;;12.27;;
8060;SDS011;4073;42.626;25.386;2023-06-24T04:45:12;15.27;;;13.67;;
8060;SDS011;4073;42.626;25.386;2023-06-24T04:47:38;15.80;;;13.57;;
8060;SDS011;4073;42.626;25.386;2023-06-24T04:50:04;15.13;;;13.53;;
8060;SDS011;4073;42.626;25.386;2023-06-24T04:52:29;18.87;;;13.00;;
8060;SDS011;4073;42.626;25.386;2023-06-24T04:54:55;17.67;;;14.53;;
8060;SDS011;4073;42.626;25.386;2023-06-24T04:57:27;15.97;;;13.60;;
8060;SDS011;4073;42.626;25.386;2023-06-24T04:59:54;15.70;;;14.20;;
8060;SDS011;4073;42.626;25.386;2023-06-24T05:02:20;15.97;;;14.03;;
8060;SDS011;4073;42.626;25.386;2023-06-24T05:04:46;17.23;;;13.70;;
8060;SDS011;4073;42.626;25.386;2023-06-24T05:07:11;14.57;;;13.07;;
8060;SDS011;4073;42.626;25.386;2023-06-24T05:09:37;15.00;;;13.50;;
8060;SDS011;4073;42.626;25.386;2023-06-24T05:12:06;14.87;;;13.47;;
8060;SDS011;4073;42.626;25.386;2023-06-24T05:14:35;14.67;;;13.10;;
8060;SDS011;4073;42.626;25.386;2023-06-24T05:17:02;14.97;;;13.50;;
8060;SDS011;4073;42.626;25.386;2023-06-24T05:19:28;13.97;;;12.50;;
8060;SDS011;4073;42.626;25.386;2023-06-24T05:21:53;14.73;;;13.43;;
8060;SDS011;4073;42.626;25.386;2023-06-24T05:24:19;15.87;;;14.03;;
8060;SDS011;4073;42.626;25.386;2023-06-24T05:26:44;15.00;;;13.60;;
8060;SDS011;4073;42.626;25.386;2023-06-24T05:29:12;14.43;;;12.73;;
8060;SDS011;4073;42.626;25.386;2023-06-24T05:31:37;15.93;;;13.47;;
8060;SDS011;4073;42.626;25.386;2023-06-24T05:34:05;14.97;;;13.57;;
8060;SDS011;4073;42.626;25.386;2023-06-24T05:36:30;14.13;;;12.77;;
8060;SDS011;4073;42.626;25.386;2023-06-24T05:38:56;15.17;;;13.27;;
8060;SDS011;4073;42.626;25.386;2023-06-24T05:41:21;14.47;;;13.00;;
8060;SDS011;4073;42.626;25.386;2023-06-24T05:43:47;15.03;;;12.50;;
8060;SDS011;4073;42.626;25.386;2023-06-24T05:46:12;14.30;;;12.90;;
8060;SDS011;4073;42.626;25.386;2023-06-24T05:48:38;12.90;;;11.80;;
8060;SDS011;4073;42.626;25.386;2023-06-24T05:51:04;13.73;;;12.33;;
8060;SDS011;4073;42.626;25.386;2023-06-24T05:53:29;14.57;;;12.47;;
8060;SDS011;4073;42.626;25.386;2023-06-24T05:55:55;16.33;;;13.97;;
8060;SDS011;4073;42.626;25.386;2023-06-24T05:58:20;17.67;;;13.53;;
8060;SDS011;4073;42.626;25.386;2023-06-24T06:00:46;15.17;;;13.37;;
8060;SDS011;4073;42.626;25.386;2023-06-24T06:03:11;16.03;;;13.77;;
8060;SDS011;4073;42.626;25.386;2023-06-24T06:05:37;15.77;;;12.80;;
8060;SDS011;4073;42.626;25.386;2023-06-24T06:08:02;13.40;;;12.10;;
8060;SDS011;4073;42.626;25.386;2023-06-24T06:10:28;16.60;;;13.43;;
8060;SDS011;4073;42.626;25.386;2023-06-24T06:12:53;16.63;;;12.33;;
8060;SDS011;4073;42.626;25.386;2023-06-24T06:15:19;13.10;;;11.77;;
8060;SDS011;4073;42.626;25.386;2023-06-24T06:17:45;11.13;;;9.77;;
8060;SDS011;4073;42.626;25.386;2023-06-24T06:20:11;10.63;;;9.50;;
8060;SDS011;4073;42.626;25.386;2023-06-24T06:22:37;14.30;;;9.53;;
8060;SDS011;4073;42.626;25.386;2023-06-24T06:25:06;10.73;;;9.57;;
8060;SDS011;4073;42.626;25.386;2023-06-24T06:27:31;11.27;;;9.67;;
8060;SDS011;4073;42.626;25.386;2023-06-24T06:29:57;10.13;;;9.00;;
8060;SDS011;4073;42.626;25.386;2023-06-24T06:32:22;9.87;;;8.90;;
8060;SDS011;4073;42.626;25.386;2023-06-24T06:34:48;10.43;;;9.43;;
8060;SDS011;4073;42.626;25.386;2023-06-24T06:37:13;10.80;;;9.73;;
8060;SDS011;4073;42.626;25.386;2023-06-24T06:39:39;10.43;;;9.43;;
8060;SDS011;4073;42.626;25.386;2023-06-24T06:42:04;14.00;;;10.23;;
8060;SDS011;4073;42.626;25.386;2023-06-24T06:44:30;10.47;;;9.43;;
8060;SDS011;4073;42.626;25.386;2023-06-24T06:46:55;10.50;;;9.50;;
8060;SDS011;4073;42.626;25.386;2023-06-24T06:49:21;12.03;;;10.30;;
8060;SDS011;4073;42.626;25.386;2023-06-24T06:51:47;11.83;;;10.47;;
8060;SDS011;4073;42.626;25.386;2023-06-24T06:54:12;10.77;;;9.80;;
8060;SDS011;4073;42.626;25.386;2023-06-24T06:56:38;10.30;;;9.40;;
8060;SDS011;4073;42.626;25.386;2023-06-24T06:59:04;9.63;;;8.73;;
8060;SDS011;4073;42.626;25.386;2023-06-24T07:01:30;12.27;;;9.30;;
8060;SDS011;4073;42.626;25.386;2023-06-24T07:03:55;12.67;;;9.00;;
8060;SDS011;4073;42.626;25.386;2023-06-24T07:06:20;9.47;;;8.57;;
8060;SDS011;4073;42.626;25.386;2023-06-24T07:08:46;8.80;;;7.90;;
8060;SDS011;4073;42.626;25.386;2023-06-24T07:11:11;8.87;;;7.10;;
8060;SDS011;4073;42.626;25.386;2023-06-24T07:13:37;6.43;;;5.93;;
8060;SDS011;4073;42.626;25.386;2023-06-24T07:16:02;8.47;;;6.97;;
8060;SDS011;4073;42.626;25.386;2023-06-24T07:18:28;6.80;;;6.20;;
8060;SDS011;4073;42.626;25.386;2023-06-24T07:20:55;8.03;;;7.17;;
8060;SDS011;4073;42.626;25.386;2023-06-24T07:23:21;7.13;;;5.90;;
8060;SDS011;4073;42.626;25.386;2023-06-24T07:25:47;6.87;;;6.13;;
8060;SDS011;4073;42.626;25.386;2023-06-24T07:28:12;6.40;;;5.70;;
8060;SDS011;4073;42.626;25.386;2023-06-24T07:30:38;6.83;;;6.20;;
8060;SDS011;4073;42.626;25.386;2023-06-24T07:33:03;7.67;;;6.20;;
8060;SDS011;4073;42.626;25.386;2023-06-24T07:35:31;13.07;;;7.00;;
8060;SDS011;4073;42.626;25.386;2023-06-24T07:37:57;7.00;;;6.40;;
8060;SDS011;4073;42.626;25.386;2023-06-24T07:40:23;9.63;;;7.47;;
8060;SDS011;4073;42.626;25.386;2023-06-24T07:42:48;7.70;;;6.93;;
8060;SDS011;4073;42.626;25.386;2023-06-24T07:45:14;6.87;;;6.27;;
8060;SDS011;4073;42.626;25.386;2023-06-24T07:47:39;7.13;;;6.00;;
8060;SDS011;4073;42.626;25.386;2023-06-24T07:50:05;7.20;;;6.00;;
8060;SDS011;4073;42.626;25.386;2023-06-24T07:52:31;6.40;;;5.83;;
8060;SDS011;4073;42.626;25.386;2023-06-24T07:54:56;7.60;;;5.80;;
8060;SDS011;4073;42.626;25.386;2023-06-24T07:57:22;6.90;;;6.20;;
8060;SDS011;4073;42.626;25.386;2023-06-24T07:59:47;8.23;;;6.10;;
8060;SDS011;4073;42.626;25.386;2023-06-24T08:02:13;9.47;;;6.07;;
8060;SDS011;4073;42.626;25.386;2023-06-24T08:04:38;7.90;;;6.67;;
8060;SDS011;4073;42.626;25.386;2023-06-24T08:07:04;6.77;;;5.83;;
8060;SDS011;4073;42.626;25.386;2023-06-24T08:09:30;7.13;;;6.33;;
8060;SDS011;4073;42.626;25.386;2023-06-24T08:11:55;7.23;;;6.53;;
8060;SDS011;4073;42.626;25.386;2023-06-24T08:14:21;7.83;;;6.30;;
8060;SDS011;4073;42.626;25.386;2023-06-24T08:16:46;6.90;;;6.20;;
8060;SDS011;4073;42.626;25.386;2023-06-24T08:19:11;7.50;;;6.70;;
8060;SDS011;4073;42.626;25.386;2023-06-24T08:21:37;7.80;;;7.10;;
8060;SDS011;4073;42.626;25.386;2023-06-24T08:24:03;13.83;;;6.73;;
8060;SDS011;4073;42.626;25.386;2023-06-24T08:26:29;7.57;;;6.87;;
8060;SDS011;4073;42.626;25.386;2023-06-24T08:28:56;7.63;;;6.93;;
8060;SDS011;4073;42.626;25.386;2023-06-24T08:31:21;7.03;;;6.43;;
8060;SDS011;4073;42.626;25.386;2023-06-24T08:33:51;7.70;;;6.77;;
8060;SDS011;4073;42.626;25.386;2023-06-24T08:36:20;8.07;;;6.30;;
8060;SDS011;4073;42.626;25.386;2023-06-24T08:38:47;7.33;;;6.67;;
8060;SDS011;4073;42.626;25.386;2023-06-24T08:41:12;8.60;;;7.43;;
8060;SDS011;4073;42.626;25.386;2023-06-24T08:43:37;7.33;;;6.67;;
8060;SDS011;4073;42.626;25.386;2023-06-24T08:46:05;8.10;;;6.70;;
8060;SDS011;4073;42.626;25.386;2023-06-24T08:48:30;7.80;;;7.00;;
8060;SDS011;4073;42.626;25.386;2023-06-24T08:50:57;8.57;;;7.50;;
8060;SDS011;4073;42.626;25.386;2023-06-24T08:53:26;7.30;;;6.63;;
8060;SDS011;4073;42.626;25.386;2023-06-24T08:55:53;7.83;;;6.90;;
8060;SDS011;4073;42.626;25.386;2023-06-24T08:58:19;8.13;;;7.20;;
8060;SDS011;4073;42.626;25.386;2023-06-24T09:00:44;7.33;;;6.73;;
8060;SDS011;4073;42.626;25.386;2023-06-24T09:03:11;10.40;;;6.77;;
8060;SDS011;4073;42.626;25.386;2023-06-24T09:05:37;7.20;;;6.37;;
8060;SDS011;4073;42.626;25.386;2023-06-24T09:08:02;9.37;;;7.10;;
8060;SDS011;4073;42.626;25.386;2023-06-24T09:13:00;8.00;;;6.87;;
8060;SDS011;4073;42.626;25.386;2023-06-24T09:15:30;9.70;;;6.90;;
8060;SDS011;4073;42.626;25.386;2023-06-24T09:18:00;8.00;;;7.23;;
8060;SDS011;4073;42.626;25.386;2023-06-24T09:20:29;6.73;;;6.03;;
8060;SDS011;4073;42.626;25.386;2023-06-24T09:22:58;7.77;;;7.03;;
8060;SDS011;4073;42.626;25.386;2023-06-24T09:25:25;7.60;;;6.60;;
8060;SDS011;4073;42.626;25.386;2023-06-24T09:27:50;9.47;;;6.77;;
8060;SDS011;4073;42.626;25.386;2023-06-24T09:30:20;8.90;;;6.93;;
8060;SDS011;4073;42.626;25.386;2023-06-24T09:32:47;6.50;;;5.87;;
8060;SDS011;4073;42.626;25.386;2023-06-24T09:35:14;7.83;;;6.50;;
8060;SDS011;4073;42.626;25.386;2023-06-24T09:37:42;8.63;;;7.00;;
8060;SDS011;4073;42.626;25.386;2023-06-24T09:40:08;8.03;;;6.70;;
8060;SDS011;4073;42.626;25.386;2023-06-24T09:42:35;8.27;;;7.00;;
8060;SDS011;4073;42.626;25.386;2023-06-24T09:45:04;7.30;;;6.60;;
8060;SDS011;4073;42.626;25.386;2023-06-24T09:47:30;6.63;;;6.07;;
8060;SDS011;4073;42.626;25.386;2023-06-24T09:49:56;10.07;;;7.13;;
8060;SDS011;4073;42.626;25.386;2023-06-24T09:52:22;7.80;;;6.80;;
8060;SDS011;4073;42.626;25.386;2023-06-24T09:54:49;7.10;;;6.40;;
8060;SDS011;4073;42.626;25.386;2023-06-24T09:57:21;7.13;;;6.43;;
8060;SDS011;4073;42.626;25.386;2023-06-24T09:59:54;6.40;;;5.80;;
8060;SDS011;4073;42.626;25.386;2023-06-24T10:02:20;7.80;;;5.93;;
8060;SDS011;4073;42.626;25.386;2023-06-24T10:04:46;6.80;;;6.10;;
8060;SDS011;4073;42.626;25.386;2023-06-24T10:07:12;6.80;;;6.13;;
8060;SDS011;4073;42.626;25.386;2023-06-24T10:09:39;6.30;;;5.77;;
8060;SDS011;4073;42.626;25.386;2023-06-24T10:12:05;7.17;;;6.00;;
8060;SDS011;4073;42.626;25.386;2023-06-24T10:14:31;6.77;;;6.27;;
8060;SDS011;4073;42.626;25.386;2023-06-24T10:17:01;7.23;;;5.83;;
8060;SDS011;4073;42.626;25.386;2023-06-24T10:19:29;7.07;;;5.83;;
8060;SDS011;4073;42.626;25.386;2023-06-24T10:21:58;6.93;;;5.60;;
8060;SDS011;4073;42.626;25.386;2023-06-24T10:24:28;7.43;;;6.43;;
8060;SDS011;4073;42.626;25.386;2023-06-24T10:27:04;8.67;;;6.57;;
8060;SDS011;4073;42.626;25.386;2023-06-24T10:29:31;6.97;;;6.37;;
8060;SDS011;4073;42.626;25.386;2023-06-24T10:32:00;6.43;;;5.53;;
8060;SDS011;4073;42.626;25.386;2023-06-24T10:34:29;7.43;;;6.37;;
8060;SDS011;4073;42.626;25.386;2023-06-24T10:39:34;6.87;;;6.13;;
8060;SDS011;4073;42.626;25.386;2023-06-24T10:42:43;7.57;;;6.77;;
8060;SDS011;4073;42.626;25.386;2023-06-24T10:44:53;6.90;;;6.27;;
8060;SDS011;4073;42.626;25.386;2023-06-24T10:47:23;6.77;;;6.07;;
8060;SDS011;4073;42.626;25.386;2023-06-24T10:49:49;9.03;;;6.13;;
8060;SDS011;4073;42.626;25.386;2023-06-24T10:52:16;6.77;;;6.17;;
8060;SDS011;4073;42.626;25.386;2023-06-24T10:54:45;6.60;;;6.00;;
8060;SDS011;4073;42.626;25.386;2023-06-24T10:57:11;8.00;;;6.03;;
8060;SDS011;4073;42.626;25.386;2023-06-24T10:59:41;10.50;;;6.00;;
8060;SDS011;4073;42.626;25.386;2023-06-24T11:02:07;6.27;;;5.70;;
8060;SDS011;4073;42.626;25.386;2023-06-24T11:04:46;6.73;;;5.83;;
8060;SDS011;4073;42.626;25.386;2023-06-24T11:07:13;6.07;;;5.47;;
8060;SDS011;4073;42.626;25.386;2023-06-24T11:09:40;8.70;;;6.67;;
8060;SDS011;4073;42.626;25.386;2023-06-24T11:12:08;7.70;;;6.07;;
8060;SDS011;4073;42.626;25.386;2023-06-24T11:14:35;6.87;;;5.67;;
8060;SDS011;4073;42.626;25.386;2023-06-24T11:17:01;6.53;;;5.93;;
8060;SDS011;4073;42.626;25.386;2023-06-24T11:19:27;6.77;;;5.37;;
8060;SDS011;4073;42.626;25.386;2023-06-24T11:21:54;6.97;;;5.77;;
8060;SDS011;4073;42.626;25.386;2023-06-24T11:24:19;7.13;;;6.17;;
8060;SDS011;4073;42.626;25.386;2023-06-24T11:26:45;6.10;;;5.50;;
8060;SDS011;4073;42.626;25.386;2023-06-24T11:29:11;6.80;;;6.20;;
8060;SDS011;4073;42.626;25.386;2023-06-24T11:31:37;6.23;;;5.63;;
8060;SDS011;4073;42.626;25.386;2023-06-24T11:34:03;6.47;;;5.87;;
8060;SDS011;4073;42.626;25.386;2023-06-24T11:36:29;6.57;;;5.97;;
8060;SDS011;4073;42.626;25.386;2023-06-24T11:38:54;8.40;;;5.73;;
8060;SDS011;4073;42.626;25.386;2023-06-24T11:41:20;6.77;;;5.57;;
8060;SDS011;4073;42.626;25.386;2023-06-24T11:43:47;7.40;;;5.93;;
8060;SDS011;4073;42.626;25.386;2023-06-24T11:46:25;6.40;;;5.40;;
8060;SDS011;4073;42.626;25.386;2023-06-24T11:48:51;8.23;;;6.23;;
8060;SDS011;4073;42.626;25.386;2023-06-24T11:51:17;6.20;;;5.60;;
8060;SDS011;4073;42.626;25.386;2023-06-24T11:53:43;6.97;;;5.97;;
8060;SDS011;4073;42.626;25.386;2023-06-24T11:56:10;6.10;;;5.60;;
8060;SDS011;4073;42.626;25.386;2023-06-24T11:58:36;6.93;;;6.30;;
8060;SDS011;4073;42.626;25.386;2023-06-24T12:01:02;6.93;;;6.33;;
8060;SDS011;4073;42.626;25.386;2023-06-24T12:03:32;7.63;;;6.83;;
8060;SDS011;4073;42.626;25.386;2023-06-24T12:05:58;8.93;;;6.30;;
8060;SDS011;4073;42.626;25.386;2023-06-24T12:08:24;8.63;;;6.60;;
8060;SDS011;4073;42.626;25.386;2023-06-24T12:10:49;5.90;;;5.40;;
8060;SDS011;4073;42.626;25.386;2023-06-24T12:13:15;6.40;;;5.80;;
8060;SDS011;4073;42.626;25.386;2023-06-24T12:15:41;8.43;;;6.40;;
8060;SDS011;4073;42.626;25.386;2023-06-24T12:18:06;7.00;;;6.13;;
8060;SDS011;4073;42.626;25.386;2023-06-24T12:20:32;6.90;;;6.20;;
8060;SDS011;4073;42.626;25.386;2023-06-24T12:22:59;9.10;;;6.93;;
8060;SDS011;4073;42.626;25.386;2023-06-24T12:25:25;7.20;;;6.07;;
8060;SDS011;4073;42.626;25.386;2023-06-24T12:27:50;7.07;;;6.33;;
8060;SDS011;4073;42.626;25.386;2023-06-24T12:30:16;6.70;;;6.00;;
8060;SDS011;4073;42.626;25.386;2023-06-24T12:32:42;7.43;;;6.83;;
8060;SDS011;4073;42.626;25.386;2023-06-24T12:35:08;7.10;;;6.50;;
8060;SDS011;4073;42.626;25.386;2023-06-24T12:37:35;10.53;;;7.07;;
8060;SDS011;4073;42.626;25.386;2023-06-24T12:40:00;7.60;;;6.80;;
8060;SDS011;4073;42.626;25.386;2023-06-24T12:42:27;6.87;;;6.27;;
8060;SDS011;4073;42.626;25.386;2023-06-24T12:44:52;7.23;;;6.60;;
8060;SDS011;4073;42.626;25.386;2023-06-24T12:47:18;6.80;;;6.10;;
8060;SDS011;4073;42.626;25.386;2023-06-24T12:49:44;6.97;;;6.37;;
8060;SDS011;4073;42.626;25.386;2023-06-24T12:52:09;7.53;;;6.70;;
8060;SDS011;4073;42.626;25.386;2023-06-24T12:54:35;6.70;;;6.10;;
8060;SDS011;4073;42.626;25.386;2023-06-24T12:57:01;6.70;;;6.07;;
8060;SDS011;4073;42.626;25.386;2023-06-24T12:59:27;7.07;;;6.47;;
8060;SDS011;4073;42.626;25.386;2023-06-24T13:01:52;7.50;;;6.70;;
8060;SDS011;4073;42.626;25.386;2023-06-24T13:04:18;7.30;;;6.70;;
8060;SDS011;4073;42.626;25.386;2023-06-24T13:06:45;7.27;;;6.57;;
8060;SDS011;4073;42.626;25.386;2023-06-24T13:09:11;8.13;;;7.30;;
8060;SDS011;4073;42.626;25.386;2023-06-24T13:11:36;7.83;;;6.97;;
8060;SDS011;4073;42.626;25.386;2023-06-24T13:14:02;7.97;;;7.17;;
8060;SDS011;4073;42.626;25.386;2023-06-24T13:16:28;8.53;;;6.50;;
8060;SDS011;4073;42.626;25.386;2023-06-24T13:18:53;7.37;;;6.50;;
8060;SDS011;4073;42.626;25.386;2023-06-24T13:21:19;6.67;;;6.17;;
8060;SDS011;4073;42.626;25.386;2023-06-24T13:23:44;7.33;;;6.67;;
8060;SDS011;4073;42.626;25.386;2023-06-24T13:26:11;7.63;;;6.83;;
8060;SDS011;4073;42.626;25.386;2023-06-24T13:28:37;6.63;;;6.13;;
8060;SDS011;4073;42.626;25.386;2023-06-24T13:31:03;7.23;;;6.63;;
8060;SDS011;4073;42.626;25.386;2023-06-24T13:33:28;7.10;;;6.50;;
8060;SDS011;4073;42.626;25.386;2023-06-24T13:35:54;6.83;;;6.23;;
8060;SDS011;4073;42.626;25.386;2023-06-24T13:38:21;8.57;;;6.07;;
8060;SDS011;4073;42.626;25.386;2023-06-24T13:40:46;7.10;;;6.47;;
8060;SDS011;4073;42.626;25.386;2023-06-24T13:43:11;7.67;;;6.90;;
8060;SDS011;4073;42.626;25.386;2023-06-24T13:45:37;6.57;;;6.07;;
8060;SDS011;4073;42.626;25.386;2023-06-24T13:48:02;6.67;;;5.80;;
8060;SDS011;4073;42.626;25.386;2023-06-24T13:50:28;6.80;;;6.13;;
8060;SDS011;4073;42.626;25.386;2023-06-24T13:52:54;7.23;;;6.50;;
8060;SDS011;4073;42.626;25.386;2023-06-24T13:55:20;7.67;;;6.90;;
8060;SDS011;4073;42.626;25.386;2023-06-24T13:57:46;7.67;;;6.93;;
8060;SDS011;4073;42.626;25.386;2023-06-24T14:00:11;8.43;;;7.63;;
8060;SDS011;4073;42.626;25.386;2023-06-24T14:02:37;7.47;;;6.87;;
8060;SDS011;4073;42.626;25.386;2023-06-24T14:05:03;7.83;;;7.17;;
8060;SDS011;4073;42.626;25.386;2023-06-24T14:07:29;7.80;;;7.10;;
8060;SDS011;4073;42.626;25.386;2023-06-24T14:09:55;10.83;;;7.67;;
8060;SDS011;4073;42.626;25.386;2023-06-24T14:12:20;7.03;;;6.47;;
8060;SDS011;4073;42.626;25.386;2023-06-24T14:14:46;7.80;;;7.00;;
8060;SDS011;4073;42.626;25.386;2023-06-24T14:17:11;8.47;;;7.27;;
8060;SDS011;4073;42.626;25.386;2023-06-24T14:19:38;7.70;;;6.83;;
8060;SDS011;4073;42.626;25.386;2023-06-24T14:22:04;7.43;;;6.83;;
8060;SDS011;4073;42.626;25.386;2023-06-24T14:24:30;6.87;;;6.17;;
8060;SDS011;4073;42.626;25.386;2023-06-24T14:26:56;9.60;;;7.33;;
8060;SDS011;4073;42.626;25.386;2023-06-24T14:29:22;7.37;;;6.27;;
8060;SDS011;4073;42.626;25.386;2023-06-24T14:31:48;8.20;;;7.40;;
8060;SDS011;4073;42.626;25.386;2023-06-24T14:34:13;8.87;;;6.87;;
8060;SDS011;4073;42.626;25.386;2023-06-24T14:36:39;7.23;;;6.63;;
8060;SDS011;4073;42.626;25.386;2023-06-24T14:39:04;8.43;;;7.27;;
8060;SDS011;4073;42.626;25.386;2023-06-24T14:41:30;8.00;;;7.30;;
8060;SDS011;4073;42.626;25.386;2023-06-24T14:43:55;7.77;;;6.33;;
8060;SDS011;4073;42.626;25.386;2023-06-24T14:46:21;7.23;;;6.23;;
8060;SDS011;4073;42.626;25.386;2023-06-24T14:48:46;7.00;;;6.40;;
8060;SDS011;4073;42.626;25.386;2023-06-24T14:51:12;10.27;;;6.63;;
8060;SDS011;4073;42.626;25.386;2023-06-24T14:53:37;8.63;;;7.27;;
8060;SDS011;4073;42.626;25.386;2023-06-24T14:56:03;7.40;;;6.70;;
8060;SDS011;4073;42.626;25.386;2023-06-24T14:58:28;6.87;;;5.93;;
8060;SDS011;4073;42.626;25.386;2023-06-24T15:00:54;7.27;;;6.50;;
8060;SDS011;4073;42.626;25.386;2023-06-24T15:03:19;7.13;;;6.40;;
8060;SDS011;4073;42.626;25.386;2023-06-24T15:05:45;6.87;;;6.20;;